createdAt,value
2019-01-12T00:02:07.756Z,17.77
2019-01-12T00:04:37.008Z,20.67
2019-01-12T00:07:06.549Z,20.67
2019-01-12T00:09:35.995Z,14.70
2019-01-12T00:12:05.988Z,15.87
2019-01-12T00:14:38.687Z,14.37
2019-01-12T00:17:08.427Z,15.70
2019-01-12T00:19:38.407Z,16.57
2019-01-12T00:22:08.911Z,15.57
2019-01-12T00:24:38.670Z,18.30
2019-01-12T00:27:08.470Z,22.30
2019-01-12T00:29:38.369Z,21.67
2019-01-12T00:32:08.268Z,19.37
2019-01-12T00:34:38.128Z,17.20
2019-01-12T00:37:07.288Z,18.80
2019-01-12T00:39:37.227Z,18.20
2019-01-12T00:42:26.327Z,14.83
2019-01-12T00:44:56.128Z,16.63
2019-01-12T00:47:25.868Z,17.63
2019-01-12T00:49:55.448Z,17.00
2019-01-12T00:52:25.269Z,15.53
2019-01-12T00:55:01.389Z,17.73
2019-01-12T00:57:31.057Z,18.67
2019-01-12T01:00:01.376Z,19.57
2019-01-12T01:02:31.681Z,20.77
2019-01-12T01:05:01.108Z,23.37
2019-01-12T01:07:31.279Z,18.47
2019-01-12T01:10:00.941Z,17.63
2019-01-12T01:12:30.401Z,18.00
2019-01-12T01:15:00.180Z,20.07
2019-01-12T01:17:30.221Z,20.93
2019-01-12T01:19:59.342Z,17.27
2019-01-12T01:22:29.122Z,18.93
2019-01-12T01:24:58.561Z,19.87
2019-01-12T01:27:28.681Z,21.13
2019-01-12T01:29:58.340Z,19.20
2019-01-12T01:32:27.881Z,20.00
2019-01-12T01:34:57.361Z,18.10
2019-01-12T01:37:26.720Z,20.20
2019-01-12T01:39:56.101Z,15.43
2019-01-12T01:42:25.641Z,17.30
2019-01-12T01:44:55.019Z,19.57
2019-01-12T01:47:24.421Z,15.20
2019-01-12T01:49:53.940Z,16.80
2019-01-12T01:52:23.041Z,17.23
2019-01-12T01:54:52.948Z,18.90
2019-01-12T01:57:22.880Z,13.07
2019-01-12T01:59:52.020Z,17.40
2019-01-12T02:02:21.662Z,19.97
2019-01-12T02:04:51.196Z,14.43
2019-01-12T02:07:20.316Z,18.27
2019-01-12T02:09:50.161Z,13.70
2019-01-12T02:12:19.617Z,13.50
2019-01-12T02:14:51.337Z,15.40
2019-01-12T02:17:20.999Z,17.83
2019-01-12T02:19:51.536Z,15.33
2019-01-12T02:22:21.477Z,12.87
2019-01-12T02:24:59.961Z,13.77
2019-01-12T02:27:26.156Z,12.80
2019-01-12T02:29:55.459Z,11.00
2019-01-12T02:32:24.898Z,13.50
2019-01-12T02:34:54.237Z,15.57
2019-01-12T02:37:24.456Z,15.37
2019-01-12T02:39:54.238Z,14.57
2019-01-12T02:42:23.776Z,13.40
2019-01-12T02:44:53.037Z,14.97
2019-01-12T02:47:22.156Z,12.80
2019-01-12T02:49:51.517Z,10.07
2019-01-12T02:52:21.817Z,11.00
2019-01-12T02:54:55.056Z,12.97
2019-01-12T02:57:24.356Z,9.60
2019-01-12T02:59:53.916Z,11.73
2019-01-12T03:02:23.761Z,10.10
2019-01-12T03:04:53.121Z,11.90
2019-01-12T03:07:22.881Z,8.07
2019-01-12T03:09:52.599Z,9.97
2019-01-12T03:12:22.000Z,10.23
2019-01-12T03:14:51.561Z,10.67
2019-01-12T03:17:20.879Z,10.63
2019-01-12T03:19:50.143Z,12.77
2019-01-12T03:22:19.358Z,11.97
2019-01-12T03:24:49.138Z,10.97
2019-01-12T03:27:24.637Z,11.77
2019-01-12T03:29:53.857Z,12.77
2019-01-12T03:32:23.237Z,14.13
2019-01-12T03:34:52.638Z,10.73
2019-01-12T03:37:21.739Z,11.03
2019-01-12T03:39:51.378Z,12.73
2019-01-12T03:42:22.519Z,15.33
2019-01-12T03:44:51.897Z,9.83
2019-01-12T03:47:23.976Z,9.67
2019-01-12T03:49:53.817Z,10.17
2019-01-12T03:52:24.316Z,12.27
2019-01-12T03:54:53.657Z,12.70
2019-01-12T03:57:24.478Z,12.83
2019-01-12T03:59:54.117Z,12.77
2019-01-12T04:02:23.743Z,16.87
2019-01-12T04:04:54.102Z,15.87
2019-01-12T04:07:23.503Z,12.23
2019-01-12T04:09:52.943Z,13.07
2019-01-12T04:12:22.505Z,15.50
2019-01-12T04:14:51.823Z,11.90
2019-01-12T04:17:21.623Z,12.77
2019-01-12T04:19:53.285Z,11.30
2019-01-12T04:22:22.716Z,10.80
2019-01-12T04:24:52.696Z,10.63
2019-01-12T04:27:22.477Z,7.40
2019-01-12T04:29:52.358Z,8.13
2019-01-12T04:32:22.237Z,8.93
2019-01-12T04:34:53.155Z,10.13
2019-01-12T04:37:22.826Z,9.37
2019-01-12T04:39:52.316Z,7.60
2019-01-12T04:42:21.696Z,11.03
2019-01-12T04:44:51.336Z,9.10
2019-01-12T04:47:22.197Z,10.97
2019-01-12T04:49:51.356Z,10.63
2019-01-12T04:52:20.758Z,8.37
2019-01-12T04:54:51.177Z,9.77
2019-01-12T04:57:20.775Z,8.93
2019-01-12T04:59:49.856Z,9.93
2019-01-12T05:02:19.308Z,8.43
2019-01-12T05:04:48.646Z,8.73
2019-01-12T05:07:18.425Z,10.50
2019-01-12T05:09:47.825Z,7.87
2019-01-12T05:12:17.573Z,11.00
2019-01-12T05:14:47.765Z,9.00
2019-01-12T05:17:17.126Z,7.83
2019-01-12T05:19:46.648Z,10.60
2019-01-12T05:22:16.086Z,10.70
2019-01-12T05:24:45.645Z,9.13
2019-01-12T05:27:14.896Z,9.90
2019-01-12T05:29:44.706Z,11.63
2019-01-12T05:32:16.047Z,11.70
2019-01-12T05:34:45.246Z,9.60
2019-01-12T05:37:14.427Z,8.43
2019-01-12T05:39:47.885Z,10.53
2019-01-12T05:42:20.401Z,10.53
2019-01-12T05:44:49.898Z,11.27
2019-01-12T05:47:19.518Z,10.80
2019-01-12T05:49:49.159Z,12.17
2019-01-12T05:52:21.778Z,12.77
2019-01-12T05:54:51.181Z,14.53
2019-01-12T05:57:20.169Z,11.23
2019-01-12T05:59:50.100Z,11.37
2019-01-12T06:02:19.355Z,12.70
2019-01-12T06:04:48.876Z,13.87
2019-01-12T06:07:18.195Z,16.50
2019-01-12T06:09:49.704Z,14.30
2019-01-12T06:12:19.784Z,12.73
2019-01-12T06:14:51.718Z,67.20
2019-01-12T06:17:20.939Z,36.07
2019-01-12T06:19:51.096Z,27.40
2019-01-12T06:22:23.316Z,28.50
2019-01-12T06:24:52.876Z,18.00
2019-01-12T06:27:23.837Z,16.73
2019-01-12T06:30:07.999Z,13.57
2019-01-12T06:32:37.816Z,19.33
2019-01-12T06:35:09.077Z,18.33
2019-01-12T06:37:38.636Z,19.60
2019-01-12T06:40:10.937Z,24.03
2019-01-12T06:42:40.459Z,22.27
2019-01-12T06:45:17.917Z,19.20
2019-01-12T06:47:47.201Z,20.83
2019-01-12T06:50:18.875Z,15.60
2019-01-12T06:52:48.039Z,15.73
2019-01-12T06:55:17.396Z,14.27
2019-01-12T06:57:48.615Z,17.37
2019-01-12T07:00:19.568Z,10.83
2019-01-12T07:02:50.573Z,13.00
2019-01-12T07:05:20.308Z,21.50
2019-01-12T07:07:52.537Z,16.70
2019-01-12T07:10:22.719Z,14.13
2019-01-12T07:12:52.018Z,16.23
2019-01-12T07:15:21.244Z,16.20
2019-01-12T07:17:53.927Z,16.50
2019-01-12T07:20:23.436Z,17.13
2019-01-12T07:22:52.676Z,14.93
2019-01-12T07:25:21.784Z,12.80
2019-01-12T07:27:51.016Z,11.13
2019-01-12T07:30:22.095Z,9.60
2019-01-12T07:32:56.358Z,10.57
2019-01-12T07:35:28.555Z,10.33
2019-01-12T07:37:57.757Z,8.93
2019-01-12T07:40:27.257Z,8.53
2019-01-12T07:42:56.397Z,8.97
2019-01-12T07:45:26.395Z,10.50
2019-01-12T07:47:56.115Z,8.43
2019-01-12T07:50:25.898Z,9.20
2019-01-12T07:52:58.675Z,14.47
2019-01-12T07:55:28.297Z,17.87
2019-01-12T07:57:58.398Z,13.60
2019-01-12T08:00:30.726Z,15.33
2019-01-12T08:03:00.725Z,13.93
2019-01-12T08:05:54.259Z,14.73
2019-01-12T08:08:23.340Z,13.97
2019-01-12T08:10:56.019Z,11.47
2019-01-12T08:13:25.416Z,15.33
2019-01-12T08:15:55.287Z,14.73
2019-01-12T08:18:24.269Z,19.83
2019-01-12T08:20:55.858Z,20.83
2019-01-12T08:23:24.852Z,17.77
2019-01-12T08:25:53.811Z,17.60
2019-01-12T08:28:23.386Z,18.57
2019-01-12T08:30:52.963Z,12.60
2019-01-12T08:33:25.445Z,14.50
2019-01-12T08:35:55.123Z,17.40
2019-01-12T08:38:24.436Z,11.80
2019-01-12T08:40:53.596Z,13.67
2019-01-12T08:43:23.037Z,14.90
2019-01-12T08:45:51.964Z,15.53
2019-01-12T08:48:21.263Z,14.63
2019-01-12T08:50:53.446Z,14.27
2019-01-12T08:53:23.622Z,12.83
2019-01-12T08:55:53.281Z,14.37
2019-01-12T08:58:22.861Z,11.07
2019-01-12T09:00:52.480Z,11.80
2019-01-12T09:03:22.422Z,19.07
2019-01-12T09:05:51.738Z,12.97
2019-01-12T09:08:20.897Z,15.30
2019-01-12T09:10:50.297Z,13.43
2019-01-12T09:13:19.847Z,13.13
2019-01-12T09:15:48.935Z,19.57
2019-01-12T09:18:17.999Z,10.33
2019-01-12T09:20:47.492Z,10.70
2019-01-12T09:23:16.784Z,10.93
2019-01-12T09:25:49.782Z,10.40
2019-01-12T09:28:19.505Z,11.90
2019-01-12T09:30:48.797Z,10.07
2019-01-12T09:33:17.824Z,8.53
2019-01-12T09:35:50.582Z,11.17
2019-01-12T09:38:19.662Z,11.17
2019-01-12T09:40:49.044Z,8.53
2019-01-12T09:43:18.123Z,8.50
2019-01-12T09:45:51.162Z,7.30
2019-01-12T09:48:20.407Z,5.93
2019-01-12T09:50:49.423Z,7.63
2019-01-12T09:53:18.523Z,5.87
2019-01-12T09:55:48.203Z,5.70
2019-01-12T09:58:17.562Z,7.17
2019-01-12T10:00:46.706Z,5.37
2019-01-12T10:03:16.122Z,6.93
2019-01-12T10:05:49.163Z,8.00
2019-01-12T10:08:18.661Z,7.73
2019-01-12T10:10:47.996Z,6.90
2019-01-12T10:13:17.438Z,9.13
2019-01-12T10:15:46.496Z,6.57
2019-01-12T10:18:17.876Z,7.40
2019-01-12T10:20:47.106Z,8.90
2019-01-12T10:23:18.082Z,7.60
2019-01-12T10:25:48.148Z,7.65
2019-01-12T10:28:19.697Z,7.20
2019-01-12T10:30:51.226Z,7.97
2019-01-12T10:33:21.110Z,10.13
2019-01-12T10:35:50.220Z,12.03
2019-01-12T10:38:26.166Z,8.40
2019-01-12T10:40:55.199Z,9.20
2019-01-12T10:43:25.856Z,10.30
2019-01-12T10:45:54.939Z,9.33
2019-01-12T10:48:24.194Z,10.20
2019-01-12T10:50:53.400Z,7.50
2019-01-12T10:53:22.496Z,6.33
2019-01-12T10:55:54.981Z,7.90
2019-01-12T10:58:24.375Z,8.70
2019-01-12T11:00:53.886Z,9.07
2019-01-12T11:03:24.622Z,7.03
2019-01-12T11:05:53.726Z,9.67
2019-01-12T11:08:22.808Z,7.27
2019-01-12T11:10:53.502Z,7.73
2019-01-12T11:13:23.261Z,6.80
2019-01-12T11:15:52.802Z,8.50
2019-01-12T11:18:22.137Z,6.90
2019-01-12T11:20:51.376Z,9.00
2019-01-12T11:23:20.456Z,8.07
2019-01-12T11:25:49.817Z,7.77
2019-01-12T11:28:19.881Z,10.87
2019-01-12T11:30:49.281Z,8.47
2019-01-12T11:33:18.382Z,7.63
2019-01-12T11:38:45.743Z,7.07
2019-01-12T11:41:15.043Z,6.97
2019-01-12T11:43:44.823Z,8.63
2019-01-12T11:46:14.580Z,7.00
2019-01-12T11:48:43.903Z,8.10
2019-01-12T11:51:13.762Z,7.13
2019-01-12T11:53:43.802Z,8.37
2019-01-12T11:56:13.502Z,5.10
2019-01-12T11:58:43.082Z,7.63
2019-01-12T12:01:12.169Z,6.80
2019-01-12T12:03:42.052Z,8.53
2019-01-12T12:06:11.365Z,9.60
2019-01-12T12:08:41.144Z,6.33
2019-01-12T12:11:10.725Z,9.10
2019-01-12T12:13:40.155Z,9.67
2019-01-12T12:16:09.256Z,8.47
2019-01-12T12:18:38.932Z,7.00
2019-01-12T12:21:07.957Z,6.87
2019-01-12T12:23:36.996Z,9.10
2019-01-12T12:26:06.096Z,9.60
2019-01-12T12:28:35.631Z,7.60
2019-01-12T12:31:07.156Z,8.53
2019-01-12T12:33:36.336Z,9.90
2019-01-12T12:36:10.890Z,7.30
2019-01-12T12:38:40.123Z,8.87
2019-01-12T12:41:09.284Z,7.73
2019-01-12T12:43:38.584Z,7.73
2019-01-12T12:46:07.982Z,7.77
2019-01-12T12:48:37.346Z,10.00
2019-01-12T12:51:08.999Z,7.37
2019-01-12T12:53:38.831Z,7.47
2019-01-12T12:56:08.298Z,10.00
2019-01-12T12:58:38.118Z,9.20
2019-01-12T13:01:09.280Z,9.00
2019-01-12T13:03:41.361Z,17.40
2019-01-12T13:06:11.140Z,12.73
2019-01-12T13:08:48.275Z,10.43
2019-01-12T13:11:12.318Z,11.40
2019-01-12T13:13:42.758Z,9.50
2019-01-12T13:16:11.910Z,10.17
2019-01-12T13:18:41.800Z,9.67
2019-01-12T13:21:11.299Z,12.53
2019-01-12T13:23:41.519Z,12.83
2019-01-12T13:26:11.379Z,9.73
2019-01-12T13:28:41.018Z,9.63
2019-01-12T13:31:12.496Z,11.40
2019-01-12T13:33:41.736Z,11.10
2019-01-12T13:36:13.116Z,12.87
2019-01-12T13:38:43.095Z,11.10
2019-01-12T13:41:15.896Z,11.40
2019-01-12T13:43:52.095Z,11.63
2019-01-12T13:46:22.796Z,12.20
2019-01-12T13:49:01.616Z,12.30
2019-01-12T13:51:31.519Z,11.53
2019-01-12T13:54:01.116Z,12.00
2019-01-12T13:56:30.437Z,11.97
2019-01-12T13:58:59.557Z,10.60
2019-01-12T14:01:29.302Z,8.60
2019-01-12T14:04:00.021Z,13.97
2019-01-12T14:06:30.079Z,9.37
2019-01-12T14:08:59.600Z,14.07
2019-01-12T14:11:33.778Z,9.37
2019-01-12T14:14:04.117Z,11.30
2019-01-12T14:16:33.598Z,11.20
2019-01-12T14:19:03.596Z,9.10
2019-01-12T14:21:34.319Z,8.83
2019-01-12T14:24:06.175Z,12.03
2019-01-12T14:26:36.476Z,10.60
2019-01-12T14:29:09.480Z,9.87
2019-01-12T14:31:39.180Z,9.67
2019-01-12T14:34:08.483Z,10.70
2019-01-12T14:36:37.799Z,11.53
2019-01-12T14:39:10.063Z,13.17
2019-01-12T14:41:39.141Z,11.97
2019-01-12T14:44:09.226Z,11.97
2019-01-12T14:46:38.509Z,15.60
2019-01-12T14:49:08.227Z,12.17
2019-01-12T14:51:37.370Z,13.10
2019-01-12T14:54:06.606Z,12.43
2019-01-12T14:56:36.068Z,13.53
2019-01-12T14:59:05.679Z,15.17
2019-01-12T15:01:34.846Z,15.27
2019-01-12T15:04:05.649Z,15.00
2019-01-12T15:06:35.231Z,14.93
2019-01-12T15:09:07.407Z,15.50
2019-01-12T15:11:37.159Z,15.30
2019-01-12T15:14:06.941Z,12.67
2019-01-12T15:16:36.762Z,17.97
2019-01-12T15:19:06.901Z,27.10
2019-01-12T15:21:37.641Z,18.77
2019-01-12T15:24:06.781Z,18.17
2019-01-12T15:26:35.969Z,17.40
2019-01-12T15:29:05.160Z,20.47
2019-01-12T15:31:34.722Z,15.57
2019-01-12T15:34:05.359Z,15.53
2019-01-12T15:36:34.959Z,19.30
2019-01-12T15:39:05.516Z,15.80
2019-01-12T15:41:36.070Z,19.83
2019-01-12T15:44:06.757Z,14.43
2019-01-12T15:46:36.776Z,15.53
2019-01-12T15:49:09.139Z,18.33
2019-01-12T15:51:38.365Z,16.03
2019-01-12T15:54:08.023Z,17.50
2019-01-12T15:56:37.217Z,16.67
2019-01-12T15:59:06.734Z,15.60
2019-01-12T16:01:35.881Z,20.60
2019-01-12T16:04:05.241Z,16.47
2019-01-12T16:06:37.762Z,16.00
2019-01-12T16:09:09.676Z,17.60
2019-01-12T16:11:39.137Z,13.30
2019-01-12T16:14:08.237Z,16.83
2019-01-12T16:16:40.782Z,16.87
2019-01-12T16:19:09.862Z,15.07
2019-01-12T16:21:39.275Z,18.33
2019-01-12T16:24:10.349Z,18.37
2019-01-12T16:26:40.045Z,19.93
2019-01-12T16:29:09.104Z,17.63
2019-01-12T16:31:38.759Z,23.40
2019-01-12T16:34:08.001Z,18.83
2019-01-12T16:36:37.880Z,17.27
2019-01-12T16:39:08.976Z,22.37
2019-01-12T16:41:38.039Z,25.83
2019-01-12T16:44:08.419Z,21.03
2019-01-12T16:46:37.779Z,19.97
2019-01-12T16:49:07.124Z,15.73
2019-01-12T16:51:36.489Z,18.67
2019-01-12T16:54:06.089Z,20.77
2019-01-12T16:56:35.864Z,18.53
2019-01-12T16:59:05.068Z,16.47
2019-01-12T17:01:34.619Z,14.93
2019-01-12T17:04:04.382Z,15.00
2019-01-12T17:06:33.540Z,15.93
2019-01-12T17:09:03.280Z,17.97
2019-01-12T17:11:35.098Z,16.37
2019-01-12T17:14:04.682Z,14.67
2019-01-12T17:16:33.812Z,15.27
2019-01-12T17:19:02.983Z,16.17
2019-01-12T17:21:32.333Z,18.37
2019-01-12T17:24:01.767Z,19.60
2019-01-12T17:26:31.067Z,16.87
2019-01-12T17:29:00.906Z,16.27
2019-01-12T17:31:30.642Z,17.47
2019-01-12T17:33:59.667Z,23.30
2019-01-12T17:36:28.741Z,21.50
2019-01-12T17:38:57.920Z,22.20
2019-01-12T17:41:27.198Z,20.50
2019-01-12T17:43:57.682Z,18.87
2019-01-12T17:46:28.043Z,20.37
2019-01-12T17:48:57.319Z,19.90
2019-01-12T17:51:26.499Z,22.13
2019-01-12T17:53:57.039Z,18.33
2019-01-12T17:56:25.981Z,19.07
2019-01-12T17:58:55.361Z,18.10
2019-01-12T18:01:24.893Z,18.10
2019-01-12T18:03:54.207Z,16.60
2019-01-12T18:06:26.280Z,18.57
2019-01-12T18:08:56.064Z,17.27
2019-01-12T18:11:25.531Z,19.17
2019-01-12T18:13:56.655Z,17.87
2019-01-12T18:16:30.393Z,22.03
2019-01-12T18:18:59.847Z,18.27
2019-01-12T18:21:30.146Z,20.67
2019-01-12T18:23:59.424Z,31.00
2019-01-12T18:26:29.697Z,33.67
2019-01-12T18:28:59.923Z,24.93
2019-01-12T18:31:30.765Z,22.13
2019-01-12T18:34:00.528Z,19.10
2019-01-12T18:36:29.625Z,18.33
2019-01-12T18:38:59.139Z,17.33
2019-01-12T18:41:28.960Z,17.40
2019-01-12T18:44:01.942Z,21.73
2019-01-12T18:46:30.996Z,20.33
2019-01-12T18:49:00.458Z,21.83
2019-01-12T18:51:32.462Z,23.43
2019-01-12T18:54:01.917Z,24.03
2019-01-12T18:56:31.104Z,21.20
2019-01-12T18:59:00.515Z,20.23
2019-01-12T19:01:30.262Z,20.80
2019-01-12T19:04:00.209Z,19.40
2019-01-12T19:06:29.658Z,17.60
2019-01-12T19:08:59.461Z,19.47
2019-01-12T19:11:30.344Z,19.40
2019-01-12T19:13:59.641Z,18.07
2019-01-12T19:16:29.344Z,17.07
2019-01-12T19:19:01.883Z,17.13
2019-01-12T19:21:31.529Z,15.23
2019-01-12T19:24:00.641Z,18.07
2019-01-12T19:26:30.361Z,18.60
2019-01-12T19:29:06.148Z,17.93
2019-01-12T19:31:31.126Z,16.80
2019-01-12T19:34:00.299Z,19.27
2019-01-12T19:36:30.223Z,20.17
2019-01-12T19:39:01.281Z,18.70
2019-01-12T19:41:30.498Z,17.27
2019-01-12T19:43:59.492Z,16.47
2019-01-12T19:46:28.459Z,19.13
2019-01-12T19:49:01.500Z,18.20
2019-01-12T19:51:31.243Z,18.73
2019-01-12T19:54:00.681Z,20.17
2019-01-12T19:56:30.049Z,22.27
2019-01-12T19:58:59.392Z,22.53
2019-01-12T20:01:28.786Z,22.23
2019-01-12T20:04:01.279Z,18.67
2019-01-12T20:06:30.424Z,18.90
2019-01-12T20:09:03.125Z,19.90
2019-01-12T20:11:32.855Z,19.23
2019-01-12T20:14:05.364Z,20.30
2019-01-12T20:16:34.766Z,19.90
2019-01-12T20:19:05.139Z,22.67
2019-01-12T20:21:34.728Z,20.13
2019-01-12T20:24:04.055Z,21.73
2019-01-12T20:26:33.623Z,16.97
2019-01-12T20:29:02.786Z,21.13
2019-01-12T20:31:52.962Z,21.70
2019-01-12T20:34:24.956Z,21.67
2019-01-12T20:37:28.986Z,25.03
2019-01-12T20:40:10.609Z,21.10
2019-01-12T20:43:06.969Z,19.03
2019-01-12T20:45:45.476Z,20.50
2019-01-12T20:48:26.236Z,22.77
2019-01-12T20:51:16.505Z,18.97
2019-01-12T20:54:06.439Z,20.23
2019-01-12T20:56:47.799Z,18.47
2019-01-12T20:59:38.319Z,20.33
2019-01-12T21:02:22.444Z,19.03
2019-01-12T21:04:54.724Z,19.87
2019-01-12T21:07:35.435Z,18.73
2019-01-12T21:10:10.698Z,16.53
2019-01-12T21:13:05.987Z,18.50
2019-01-12T21:15:55.980Z,18.37
2019-01-12T21:18:25.364Z,16.50
2019-01-12T21:20:54.660Z,18.30
2019-01-12T21:23:23.896Z,19.40
2019-01-12T21:25:53.303Z,21.00
2019-01-12T21:28:22.312Z,16.10
2019-01-12T21:30:51.966Z,18.70
2019-01-12T21:33:22.605Z,19.10
2019-01-12T21:35:52.381Z,18.30
2019-01-12T21:38:22.021Z,19.03
2019-01-12T21:40:52.313Z,18.50
2019-01-12T21:43:21.306Z,19.83
2019-01-12T21:45:53.305Z,17.33
2019-01-12T21:48:23.246Z,18.17
2019-01-12T21:50:52.446Z,19.03
2019-01-12T21:53:22.004Z,17.07
2019-01-12T21:55:51.485Z,16.63
2019-01-12T21:58:20.925Z,18.60
2019-01-12T22:00:50.181Z,16.93
2019-01-12T22:03:20.083Z,17.37
2019-01-12T22:05:49.501Z,21.73
2019-01-12T22:08:19.201Z,20.70
2019-01-12T22:10:48.361Z,19.87
2019-01-12T22:13:17.442Z,21.20
2019-01-12T22:15:46.660Z,19.47
2019-01-12T22:18:16.026Z,20.20
2019-01-12T22:20:46.660Z,21.03
2019-01-12T22:23:18.010Z,25.33
2019-01-12T22:25:50.214Z,27.47
2019-01-12T22:28:20.329Z,25.97
2019-01-12T22:30:50.323Z,30.53
2019-01-12T22:33:23.394Z,27.33
2019-01-12T22:35:54.655Z,26.43
2019-01-12T22:38:25.074Z,27.07
2019-01-12T22:40:56.832Z,25.33
2019-01-12T22:43:26.638Z,24.77
2019-01-12T22:45:56.796Z,27.40
2019-01-12T22:48:26.956Z,28.97
2019-01-12T22:50:56.638Z,34.37
2019-01-12T22:53:26.977Z,31.07
2019-01-12T22:55:56.797Z,30.57
2019-01-12T22:58:25.926Z,34.93
2019-01-12T23:01:05.800Z,37.33
2019-01-12T23:03:35.304Z,31.63
2019-01-12T23:06:04.580Z,34.37
2019-01-12T23:08:33.855Z,36.47
2019-01-12T23:11:03.715Z,35.10
2019-01-12T23:13:36.537Z,32.73
2019-01-12T23:16:06.675Z,30.30
2019-01-12T23:18:36.135Z,31.23
2019-01-12T23:21:05.935Z,28.53
2019-01-12T23:23:35.255Z,30.60
2019-01-12T23:26:06.097Z,26.77
2019-01-12T23:28:35.495Z,33.63
2019-01-12T23:31:05.823Z,36.73
2019-01-12T23:33:35.636Z,29.97
2019-01-12T23:36:05.475Z,31.57
2019-01-12T23:38:34.756Z,31.90
2019-01-12T23:41:03.996Z,31.77
2019-01-12T23:43:34.057Z,28.90
2019-01-12T23:46:03.556Z,26.70
2019-01-12T23:48:33.236Z,31.27
2019-01-12T23:51:21.676Z,26.17
2019-01-12T23:53:50.915Z,27.23
2019-01-12T23:56:23.375Z,32.30
2019-01-12T23:58:52.757Z,29.60
